Flight Track Log - Related Links

Times and Time Zones

All times are in EDT time to prevent confusion due to time zone crossing. See the AWE710 flight status page for this flight to view local times or setup timezone preferences in your user account.


Time Position Orientation Groundspeed Altitude Reporting Facility
EDT Latitude Longitude Course Direction KTS MPH feet Rate Location/Type
Sun 01:47:25 PM 32.8833 -97.0333 67° East 156 180 1,300  Level Dallas / Fort Worth TRACON
Sun 01:48:25 PM 32.8333 -97.0167 164° South 192 221 2,600 1,606 Climbing Dallas / Fort Worth TRACON
Sun 01:49:00 PM 32.7910 -96.7520 66° East  Level FlightAware Approximate
Sun 01:49:32 PM 32.7833 -96.9833 151° Southeast 262 302 4,700  Level Dallas / Fort Worth TRACON
Sun 01:50:00 PM 32.8390 -96.6343 62° Northeast  Level FlightAware Approximate
Sun 01:50:27 PM 32.7667 -96.8833 101° East 301 346 6,900  Level Dallas / Fort Worth TRACON
Sun 01:51:00 PM 32.8914 -96.5190 62° Northeast  Level FlightAware Approximate
Sun 01:51:27 PM 32.7833 -96.7833 79° East 322 371 9,500  Level Dallas / Fort Worth TRACON
Sun 01:52:00 PM 32.9366 -96.3996 67° East  Level FlightAware Approximate
Sun 01:52:34 PM 32.8333 -96.6667 63° Northeast 365 420 11,300  Level Dallas / Fort Worth TRACON
Sun 01:53:39 PM 32.8847 -96.5450 63° Northeast 387 445 13,400 1,810 Climbing Fort Worth Center
Sun 01:54:40 PM 32.9339 -96.4233 64° Northeast 399 459 15,100 2,000 Climbing Fort Worth Center
Sun 01:55:39 PM 32.9744 -96.2892 70° East 413 475 17,400 2,017 Climbing Fort Worth Center
Sun 01:56:39 PM 32.9961 -96.1478 80° East 423 487 19,100 1,600 Climbing Fort Worth Center
Sun 01:57:39 PM 33.0175 -95.9989 80° East 452 520 20,600 1,500 Climbing Fort Worth Center
Sun 01:58:39 PM 33.0367 -95.8472 81° East 452 520 22,100 1,400 Climbing Fort Worth Center
Sun 01:59:39 PM 33.0575 -95.6908 81° East 471 542 23,400 1,140 Climbing Fort Worth Center
Sun 02:00:40 PM 33.0764 -95.5467 81° East 477 549 24,400 1,150 Climbing Fort Worth Center
Sun 02:01:39 PM 33.1242 -95.3969 69° East 483 556 25,700 1,311 Climbing Fort Worth Center
Sun 02:02:39 PM 33.1656 -95.2469 72° East 483 556 27,000 645 Climbing Fort Worth Center
Sun 02:03:40 PM 33.2128 -95.0994 69° East 477 549 27,000  Level Fort Worth Center
Sun 02:04:39 PM 33.2561 -94.9567 70° East 464 534 27,000  Level Fort Worth Center
Sun 02:05:39 PM 33.2989 -94.8064 71° East 464 534 27,000  Level Fort Worth Center
Sun 02:06:40 PM 33.3439 -94.6558 70° East 469 540 27,000  Level Fort Worth Center
Sun 02:07:39 PM 33.3886 -94.5075 70° East 469 540 27,000  Level Fort Worth Center
Sun 02:08:40 PM 33.4331 -94.3594 70° East 469 540 27,000  Level Fort Worth Center
Sun 02:09:40 PM 33.4789 -94.1958 71° East 469 540 27,000  Level Fort Worth Center
Sun 02:10:40 PM 33.5272 -94.0472 69° East 469 540 27,000  Level Fort Worth Center
Sun 02:12:44 PM 33.6381 -93.7606 65° Northeast 478 550 27,000  Level Memphis Center
Sun 02:13:44 PM 33.6919 -93.6178 66° East 472 543 27,000  Level Memphis Center
Sun 02:14:44 PM 33.7458 -93.4747 66° East 472 543 27,000  Level Memphis Center
Sun 02:15:44 PM 33.8033 -93.3319 64° Northeast 472 543 27,000  Level Memphis Center
Sun 02:16:44 PM 33.8633 -93.1739 65° Northeast 466 536 27,000  Level Memphis Center
Sun 02:17:44 PM 33.9147 -93.0303 67° East 466 536 27,000  Level Memphis Center
Sun 02:18:44 PM 33.9719 -92.8894 64° Northeast 471 542 27,000  Level Memphis Center
Sun 02:19:44 PM 34.0247 -92.7456 66° East 471 542 27,000  Level Memphis Center
Sun 02:20:44 PM 34.0756 -92.5992 67° East 471 542 27,000  Level Memphis Center
Sun 02:21:44 PM 34.1300 -92.4600 65° Northeast 471 542 27,000  Level Memphis Center
Sun 02:22:44 PM 34.1825 -92.3156 66° East 465 535 27,000  Level Memphis Center
Sun 02:23:44 PM 34.2367 -92.1736 65° Northeast 465 535 27,000  Level Memphis Center
Sun 02:24:44 PM 34.2867 -92.0339 67° East 454 522 27,000  Level Memphis Center
Sun 02:25:44 PM 34.3386 -91.8892 66° East 459 528 27,000  Level Memphis Center
Sun 02:26:44 PM 34.3925 -91.7492 65° Northeast 459 528 27,000  Level Memphis Center
Sun 02:27:44 PM 34.4419 -91.6089 67° East 453 521 27,000  Level Memphis Center
Sun 02:28:44 PM 34.4933 -91.4658 66° East 453 521 27,000  Level Memphis Center
Sun 02:29:44 PM 34.5425 -91.3253 67° East 458 527 27,000  Level Memphis Center
Sun 02:30:44 PM 34.5958 -91.1797 66° East 458 527 27,000  Level Memphis Center
Sun 02:31:44 PM 34.6467 -91.0361 67° East 458 527 27,000  Level Memphis Center
Sun 02:32:44 PM 34.6994 -90.8928 66° East 458 527 27,000  Level Memphis Center
Sun 02:33:44 PM 34.7503 -90.7489 67° East 458 527 27,000  Level Memphis Center
Sun 02:34:44 PM 34.8028 -90.6000 67° East 464 534 27,000  Level Memphis Center
Sun 02:35:44 PM 34.8486 -90.4711 67° East 464 534 27,000  Level Memphis Center
Sun 02:36:44 PM 34.8989 -90.3242 67° East 464 534 27,000  Level Memphis Center
Sun 02:37:44 PM 34.9508 -90.1797 66° East 464 534 27,000  Level Memphis Center
Sun 02:38:44 PM 35.0028 -90.0275 67° East 464 534 27,000  Level Memphis Center
Sun 02:39:44 PM 35.0628 -89.8625 66° East 474 545 27,000  Level Memphis Center
Sun 02:40:44 PM 35.1142 -89.7175 67° East 474 545 27,000  Level Memphis Center
Sun 02:41:44 PM 35.1633 -89.5747 67° East 460 529 27,000 250 Level Memphis Center
Sun 02:42:44 PM 35.2144 -89.4294 67° East 455 524 27,500 950 Climbing Memphis Center
Sun 02:43:44 PM 35.2656 -89.2814 67° East 460 529 28,900 1,400 Climbing Memphis Center
Sun 02:44:44 PM 35.3122 -89.1508 66° East 460 529 30,300 1,250 Climbing Memphis Center
Sun 02:45:44 PM 35.3628 -89.0050 67° East 455 524 31,400 1,150 Climbing Memphis Center
Sun 02:46:44 PM 35.4133 -88.8592 67° East 464 534 32,600 800 Climbing Memphis Center
Sun 02:47:44 PM 35.4675 -88.6950 68° East 464 534 33,000 200 Climbing Memphis Center
Sun 02:48:44 PM 35.5217 -88.5383 67° East 469 540 33,000  Level Memphis Center
Sun 02:49:44 PM 35.5797 -88.3761 66° East 494 568 33,000  Level Memphis Center
Sun 02:50:44 PM 35.6333 -88.2114 68° East 508 585 33,000  Level Memphis Center
Sun 02:51:44 PM 35.6789 -88.0747 68° East 496 571 33,000  Level Memphis Center
Sun 02:52:44 PM 35.7342 -87.9147 67° East 495 570 33,000  Level Memphis Center
Sun 02:53:44 PM 35.7872 -87.7594 67° East 495 570 33,000  Level Memphis Center
Sun 02:54:44 PM 35.8400 -87.5967 68° East 503 579 33,000  Level Memphis Center
Sun 02:55:44 PM 35.8928 -87.4358 68° East 496 571 33,000  Level Memphis Center
Sun 02:56:44 PM 35.9450 -87.2750 68° East 501 577 33,000  Level Memphis Center
Sun 02:57:44 PM 36.0008 -87.0958 69° East 501 577 33,000  Level Memphis Center
Sun 02:58:44 PM 36.0550 -86.9319 68° East 506 582 33,000  Level Memphis Center
Sun 02:59:44 PM 36.1064 -86.7656 69° East 506 582 33,000  Level Memphis Center
Sun 03:00:44 PM 36.1619 -86.5986 68° East 511 588 33,000  Level Memphis Center
Sun 03:01:44 PM 36.2117 -86.4469 68° East 518 596 33,000  Level Memphis Center
Sun 03:02:44 PM 36.2706 -86.2692 68° East 518 596 33,000  Level Memphis Center
Sun 03:03:44 PM 36.3231 -86.1017 69° East 525 604 33,000  Level Memphis Center
Sun 03:05:39 PM 36.4183 -85.8092 68° East 517 595 33,000  Level Indianapolis Center
Sun 03:06:41 PM 36.4711 -85.6411 69° East 520 598 33,000  Level Indianapolis Center
Sun 03:07:43 PM 36.5336 -85.4392 69° East 518 596 33,000  Level Indianapolis Center
Sun 03:08:45 PM 36.5856 -85.2694 69° East 522 601 33,000  Level Indianapolis Center
Sun 03:09:47 PM 36.6381 -85.1014 69° East 520 598 33,000  Level Indianapolis Center
Sun 03:10:49 PM 36.6900 -84.9328 69° East 518 596 33,000  Level Indianapolis Center
Sun 03:11:51 PM 36.7414 -84.7600 70° East 526 605 33,000  Level Indianapolis Center
Sun 03:12:53 PM 36.7933 -84.5900 69° East 525 604 33,000  Level Indianapolis Center
Sun 03:13:55 PM 36.8472 -84.4133 69° East 528 608 33,000  Level Indianapolis Center
Sun 03:14:57 PM 36.9086 -84.2103 69° East 536 617 33,000  Level Indianapolis Center
Sun 03:15:59 PM 36.9594 -84.0367 70° East 529 609 33,000  Level Indianapolis Center
Sun 03:17:01 PM 37.0111 -83.8631 70° East 534 615 33,000  Level Indianapolis Center
Sun 03:18:03 PM 37.0656 -83.6861 69° East 540 621 33,000  Level Indianapolis Center
Sun 03:19:05 PM 37.1161 -83.5086 70° East 538 619 33,000  Level Indianapolis Center
Sun 03:20:07 PM 37.1681 -83.3317 70° East 537 618 33,000  Level Indianapolis Center
Sun 03:21:09 PM 37.2186 -83.1525 70° East 538 619 33,000  Level Indianapolis Center
Sun 03:22:11 PM 37.2800 -82.9417 70° East 543 625 33,000  Level Indianapolis Center
Sun 03:23:13 PM 37.3308 -82.7619 70° East 540 621 33,000  Level Indianapolis Center
Sun 03:24:15 PM 37.3806 -82.5831 71° East 537 618 33,000  Level Indianapolis Center
Sun 03:25:17 PM 37.4319 -82.4044 70° East 539 620 33,000  Level Indianapolis Center
Sun 03:26:19 PM 37.4825 -82.2250 70° East 542 624 33,000  Level Indianapolis Center
Sun 03:27:21 PM 37.5317 -82.0456 71° East 542 624 33,000  Level Indianapolis Center
Sun 03:28:22 PM 37.5808 -81.8656 71° East 543 625 33,000  Level Indianapolis Center
Sun 03:29:24 PM 37.6389 -81.6550 71° East 544 626 33,000  Level Indianapolis Center
Sun 03:30:26 PM 37.6850 -81.4750 72° East 545 627 33,000  Level Indianapolis Center
Sun 03:31:28 PM 37.7344 -81.2989 70° East 546 628 33,000  Level Indianapolis Center
Sun 03:32:30 PM 37.7792 -81.1208 72° East 546 628 33,000  Level Indianapolis Center
Sun 03:33:32 PM 37.7953 -80.8981 85° East 544 626 33,000  Level Indianapolis Center
Sun 03:34:34 PM 37.8067 -80.7125 86° East 545 627 33,000  Level Indianapolis Center
Sun 03:35:37 PM 37.8194 -80.5264 85° East 538 619 33,000  Level Washington Center
Sun 03:36:37 PM 37.8314 -80.3350 85° East 538 619 33,000  Level Washington Center
Sun 03:37:37 PM 37.8456 -80.1256 85° East 543 625 33,000  Level Washington Center
Sun 03:38:37 PM 37.8569 -79.9342 86° East 543 625 33,000  Level Washington Center
Sun 03:39:37 PM 37.8678 -79.7428 86° East 538 619 33,000  Level Washington Center
Sun 03:40:37 PM 37.8806 -79.5514 85° East 538 619 33,000  Level Washington Center
Sun 03:41:37 PM 37.8911 -79.3572 86° East 543 625 33,000  Level Washington Center
Sun 03:42:37 PM 37.9011 -79.1631 86° East 548 631 33,000  Level Washington Center
Sun 03:43:37 PM 37.9189 -78.9875 83° East 553 636 33,000  Level Washington Center
Sun 03:44:37 PM 37.9428 -78.7989 81° East 553 636 33,000  Level Washington Center
Sun 03:45:37 PM 37.9644 -78.6075 82° East 553 636 33,000  Level Washington Center
Sun 03:46:37 PM 37.9878 -78.4136 81° East 553 636 33,000  Level Washington Center
Sun 03:47:37 PM 38.0133 -78.2064 81° East 554 638 33,000  Level Washington Center
Sun 03:48:37 PM 38.0669 -78.0447 67° East 546 628 33,000  Level Washington Center
Sun 03:49:37 PM 38.1494 -77.8811 57° Northeast 540 621 33,000 -800 Level Washington Center
Sun 03:50:37 PM 38.2272 -77.7222 58° Northeast 535 616 31,400 -1,850 Descending Washington Center
Sun 03:51:37 PM 38.3050 -77.5631 58° Northeast 530 610 29,300 -1,200 Descending Washington Center
Sun 03:52:37 PM 38.3869 -77.3931 58° Northeast 520 598 29,000 -150 Descending Washington Center
Sun 03:53:37 PM 38.4578 -77.2567 56° Northeast 515 593 29,000 -450 Level Washington Center
Sun 03:54:37 PM 38.5328 -77.1019 58° Northeast 515 593 28,100 -1,150 Descending Washington Center
Sun 03:55:37 PM 38.6033 -76.9572 58° Northeast 505 581 26,700 -1,550 Descending Washington Center
Sun 03:56:37 PM 38.6800 -76.7992 58° Northeast 482 555 25,000 -1,350 Descending Washington Center
Sun 03:57:37 PM 38.7208 -76.6772 67° East 448 516 24,000 -900 Descending Washington Center
Sun 03:58:37 PM 38.7533 -76.5261 75° East 438 504 23,200 -1,650 Descending Washington Center
Sun 03:59:37 PM 38.7836 -76.3772 75° East 433 498 20,700 -2,450 Descending Washington Center
Sun 04:00:37 PM 38.8136 -76.2283 75° East 433 498 18,300 -2,500 Descending Washington Center
Sun 04:01:37 PM 38.8456 -76.0661 76° East 427 491 15,700 -1,700 Descending Washington Center
Sun 04:02:37 PM 38.8733 -75.9303 75° East 411 473 14,900 -1,200 Descending Washington Center
Sun 04:03:37 PM 38.9236 -75.8103 62° Northeast 380 437 13,300 -1,800 Descending Washington Center
Sun 04:04:37 PM 39.0050 -75.7333 36° Northeast 362 417 11,300 -1,200 Descending Washington Center
Sun 04:05:37 PM 39.0906 -75.6772 27° Northeast 345 397 10,900 -175 Descending Washington Center
Sun 04:06:20 PM 39.1536 -75.6678 North 332 382 11,000 -194 Climbing FAA TRACON SMA TRACON (SMA)
Sun 04:06:39 PM 39.1789 -75.6625 North 330 380 10,700 -769 Descending FAA TRACON SMA TRACON (SMA)
Sun 04:06:59 PM 39.2078 -75.6622 360° North 308 354 10,500 -750 Descending FAA TRACON SMA TRACON (SMA)
Sun 04:07:19 PM 39.2389 -75.6586 North 286 329 10,200 -600 Descending FAA TRACON SMA TRACON (SMA)
Sun 04:07:39 PM 39.2606 -75.6564 North 280 322 10,100 -450 Descending FAA TRACON SMA TRACON (SMA)
Sun 04:07:59 PM 39.2844 -75.6486 14° North 275 316 9,900 -1,200 Descending FAA TRACON SMA TRACON (SMA)
Sun 04:08:19 PM 39.3119 -75.6311 26° Northeast 283 326 9,300 -1,650 Descending FAA TRACON SMA TRACON (SMA)
Sun 04:08:39 PM 39.3297 -75.6131 38° Northeast 285 328 8,800 -1,650 Descending FAA TRACON SMA TRACON (SMA)
Sun 04:08:59 PM 39.3525 -75.5942 33° Northeast 288 331 8,200 -1,800 Descending FAA TRACON SMA TRACON (SMA)
Sun 04:09:19 PM 39.3775 -75.5711 35° Northeast 288 331 7,600 -1,500 Descending FAA TRACON SMA TRACON (SMA)
Sun 04:09:39 PM 39.3922 -75.5447 54° Northeast 306 352 7,200 -900 Descending FAA TRACON SMA TRACON (SMA)
Sun 04:09:59 PM 39.4031 -75.5136 66° East 295 339 7,000 -143 Descending FAA TRACON SMA TRACON (SMA)
Sun 04:10:21 PM 39.4150 -75.4731 69° East 309 356 7,100  Climbing FAA TRACON SMA TRACON (SMA)
Sun 04:10:41 PM 39.4225 -75.4436 72° East 310 357 7,000  Descending FAA TRACON SMA TRACON (SMA)
Sun 04:11:00 PM 39.4339 -75.4094 67° East 306 352 7,100  Climbing FAA TRACON SMA TRACON (SMA)
Sun 04:11:20 PM 39.4456 -75.3708 69° East 308 354 7,000 -150 Descending FAA TRACON SMA TRACON (SMA)
Sun 04:11:40 PM 39.4544 -75.3394 70° East 309 356 7,000 150 Level FAA TRACON SMA TRACON (SMA)
Sun 04:12:00 PM 39.4669 -75.3092 62° Northeast 302 348 7,100 150 Climbing FAA TRACON SMA TRACON (SMA)
Sun 04:12:20 PM 39.4881 -75.2797 47° Northeast 293 337 7,100  Level FAA TRACON SMA TRACON (SMA)
Sun 04:12:40 PM 39.5058 -75.2581 43° Northeast 288 331 7,100 -300 Level FAA TRACON SMA TRACON (SMA)
Sun 04:13:00 PM 39.5278 -75.2319 43° Northeast 282 325 6,900 -600 Descending FAA TRACON SMA TRACON (SMA)
Sun 04:13:20 PM 39.5461 -75.2125 39° Northeast 276 318 6,700 -1,050 Descending FAA TRACON SMA TRACON (SMA)
Sun 04:13:40 PM 39.5639 -75.1958 36° Northeast 275 316 6,200 -900 Descending FAA TRACON SMA TRACON (SMA)
Sun 04:14:00 PM 39.5886 -75.1719 37° Northeast 275 316 6,100 -300 Descending FAA TRACON SMA TRACON (SMA)
Sun 04:14:20 PM 39.6072 -75.1539 37° Northeast 272 313 6,000 -150 Descending FAA TRACON SMA TRACON (SMA)
Sun 04:14:40 PM 39.6250 -75.1369 36° Northeast 270 311 6,000  Level FAA TRACON SMA TRACON (SMA)
Sun 04:15:00 PM 39.6486 -75.1133 38° Northeast 271 312 6,000 150 Level FAA TRACON SMA TRACON (SMA)
Sun 04:15:20 PM 39.6675 -75.0953 36° Northeast 274 315 6,100 154 Climbing FAA TRACON SMA TRACON (SMA)
Sun 04:15:39 PM 39.6881 -75.0836 24° Northeast 254 292 6,100 -769 Level FAA TRACON SMA TRACON (SMA)
Sun 04:15:59 PM 39.7133 -75.0728 18° North 252 290 5,600 -1,500 Descending FAA TRACON SMA TRACON (SMA)
Sun 04:16:19 PM 39.7336 -75.0644 18° North 255 293 5,100 -1,610 Descending FAA TRACON SMA TRACON (SMA)
Sun 04:16:40 PM 39.7542 -75.0569 16° North 254 292 4,500 -2,049 Descending FAA TRACON SMA TRACON (SMA)
Sun 04:17:00 PM 39.7822 -75.0472 15° North 261 300 3,700 -1,950 Descending FAA TRACON SMA TRACON (SMA)
Sun 04:17:20 PM 39.8047 -75.0461 North 261 300 3,200 -900 Descending FAA TRACON SMA TRACON (SMA)
Sun 04:17:40 PM 39.8264 -75.0461 360° North 249 287 3,100 -300 Descending FAA TRACON SMA TRACON (SMA)
Sun 04:18:00 PM 39.8503 -75.0458 North 228 262 3,000 -300 Descending FAA TRACON SMA TRACON (SMA)
Sun 04:18:20 PM 39.8683 -75.0500 350° North 213 245 2,900 -300 Descending FAA TRACON SMA TRACON (SMA)

Login

Don't have an account? Register now (free) for customized features, flight alerts, and more!